Time;durP1;ratioP1;P1;durP2;ratioP2;P2;SDS_P1;SDS_P2;PMS_P1;PMS_P2;Temp;Humidity;BMP_temperature;BMP_pressure;BME280_temperature;BME280_humidity;BME280_pressure;Samples;Min_cycle;Max_cycle;Signal;HPM_P1;HPM_P2
2023/07/24 00:01:20;;;;;;;1.00;0.95;;;16.40;99.90;;;;;;5009336;28;20042;-71
2023/07/24 00:03:46;;;;;;;0.40;0.40;;;16.70;99.90;;;;;;5009455;28;20033;-71
2023/07/24 00:06:11;;;;;;;0.88;0.88;;;16.90;99.90;;;;;;5008969;28;20144;-69
2023/07/24 00:08:38;;;;;;;0.40;0.40;;;16.40;99.90;;;;;;5007371;28;20036;-70
2023/07/24 00:11:07;;;;;;;1.02;0.98;;;16.40;99.90;;;;;;5008713;28;20481;-70
2023/07/24 00:13:33;;;;;;;0.70;0.70;;;16.80;99.90;;;;;;5011879;28;20501;-71
2023/07/24 00:15:58;;;;;;;0.73;0.73;;;16.40;99.90;;;;;;5013364;28;20068;-71
2023/07/24 00:18:24;;;;;;;0.40;0.40;;;16.40;99.90;;;;;;5013146;28;20037;-71
2023/07/24 00:20:50;;;;;;;0.40;0.40;;;16.40;99.90;;;;;;4993713;28;20580;-72
2023/07/24 00:23:15;;;;;;;0.70;0.70;;;16.80;99.90;;;;;;4994860;28;20034;-72
2023/07/24 00:25:41;;;;;;;0.68;0.60;;;16.40;99.90;;;;;;4993970;28;20116;-71
2023/07/24 00:28:07;;;;;;;0.50;0.50;;;16.50;99.90;;;;;;5016445;28;20049;-71
2023/07/24 00:30:32;;;;;;;1.33;1.25;;;16.50;99.90;;;;;;5012075;28;20493;-71
2023/07/24 00:32:58;;;;;;;0.68;0.68;;;16.90;99.90;;;;;;5005663;28;20049;-71
2023/07/24 00:35:25;;;;;;;0.50;0.50;;;16.50;99.90;;;;;;5012296;28;20041;-71
2023/07/24 00:37:50;;;;;;;0.65;0.65;;;16.80;99.90;;;;;;5011686;28;20049;-71
2023/07/24 00:40:16;;;;;;;0.77;0.77;;;16.70;99.90;;;;;;5007228;28;20502;-71
2023/07/24 00:42:46;;;;;;;1.52;1.08;;;16.70;99.90;;;;;;5006447;28;20056;-71
2023/07/24 00:45:12;;;;;;;1.20;0.98;;;16.70;99.90;;;;;;5005826;28;20132;-71
2023/07/24 00:47:38;;;;;;;0.50;0.50;;;17.00;99.90;;;;;;5008415;28;20125;-71
2023/07/24 00:50:04;;;;;;;1.02;1.02;;;17.00;99.90;;;;;;5008014;28;20042;-71
2023/07/24 00:52:30;;;;;;;1.98;1.83;;;16.90;99.90;;;;;;5009098;28;20100;-71
2023/07/24 00:54:56;;;;;;;0.73;0.73;;;16.90;99.90;;;;;;5005457;28;20042;-71
2023/07/24 00:57:22;;;;;;;0.95;0.95;;;16.60;99.90;;;;;;5007933;28;20057;-71
2023/07/24 00:59:48;;;;;;;0.95;0.95;;;16.90;99.90;;;;;;5006768;28;20519;-71
2023/07/24 01:02:14;;;;;;;0.60;0.60;;;16.90;99.90;;;;;;5008949;28;20038;-71
2023/07/24 01:04:40;;;;;;;0.82;0.82;;;17.00;99.90;;;;;;5008172;28;20057;-71
2023/07/24 01:07:05;;;;;;;1.15;0.73;;;16.50;99.90;;;;;;5009039;28;20046;-71
2023/07/24 01:09:31;;;;;;;1.17;1.17;;;16.80;99.90;;;;;;5008522;28;20493;-71
2023/07/24 01:12:22;;;;;;;1.33;1.25;;;16.50;99.90;;;;;;4989942;28;20042;-71
2023/07/24 01:15:02;;;;;;;1.52;1.42;;;16.90;99.90;;;;;;4996367;28;20088;-71
2023/07/24 01:17:32;;;;;;;1.40;0.95;;;16.70;99.90;;;;;;5008382;28;20042;-71
2023/07/24 01:19:59;;;;;;;0.80;0.80;;;16.70;99.90;;;;;;5008843;28;20456;-71
2023/07/24 01:22:28;;;;;;;2.55;2.35;;;16.50;99.90;;;;;;4991392;28;20559;-71
2023/07/24 01:25:20;;;;;;;0.55;0.55;;;16.80;99.90;;;;;;4994105;28;20056;-71
2023/07/24 01:27:46;;;;;;;0.70;0.70;;;16.40;99.90;;;;;;5003465;28;20081;-71
2023/07/24 01:30:14;;;;;;;0.98;0.98;;;16.70;99.90;;;;;;5005276;28;20080;-71
2023/07/24 01:32:40;;;;;;;0.80;0.80;;;16.50;99.90;;;;;;5008340;28;20038;-71
2023/07/24 01:35:06;;;;;;;1.85;1.75;;;16.40;99.90;;;;;;5008077;28;20528;-71
2023/07/24 01:37:33;;;;;;;0.50;0.50;;;16.30;99.90;;;;;;4991909;28;20053;-71
2023/07/24 01:40:00;;;;;;;0.65;0.65;;;16.40;99.90;;;;;;5005346;28;20046;-71
2023/07/24 01:42:26;;;;;;;1.30;1.30;;;16.30;99.90;;;;;;5011128;28;20560;-71
2023/07/24 01:44:55;;;;;;;0.95;0.90;;;16.20;99.90;;;;;;5011773;28;20128;-71
2023/07/24 01:47:22;;;;;;;1.05;1.05;;;16.30;99.90;;;;;;5003394;28;20047;-71
2023/07/24 01:49:47;;;;;;;0.57;0.57;;;16.40;99.90;;;;;;5009630;28;20045;-71
2023/07/24 01:52:13;;;;;;;1.92;1.75;;;16.40;99.90;;;;;;4993879;28;20041;-71
2023/07/24 01:54:39;;;;;;;1.45;1.35;;;16.60;99.90;;;;;;5002313;28;20091;-71
2023/07/24 01:57:05;;;;;;;0.60;0.60;;;16.20;99.90;;;;;;5009990;28;20041;-71
2023/07/24 01:59:31;;;;;;;1.10;1.10;;;16.20;99.90;;;;;;5010889;28;20112;-71
2023/07/24 02:01:57;;;;;;;0.50;0.50;;;16.20;99.90;;;;;;5009086;28;20171;-71
2023/07/24 02:04:23;;;;;;;1.05;0.90;;;16.10;99.90;;;;;;5007753;28;20045;-71
2023/07/24 02:06:49;;;;;;;0.40;0.40;;;16.20;99.90;;;;;;4994321;28;20077;-71
2023/07/24 02:09:18;;;;;;;0.88;0.88;;;16.20;99.90;;;;;;5010386;28;20052;-71
2023/07/24 02:11:44;;;;;;;0.88;0.88;;;16.30;99.90;;;;;;5009467;28;20037;-71
2023/07/24 02:14:11;;;;;;;0.82;0.82;;;16.30;99.90;;;;;;5009456;28;20042;-69
2023/07/24 02:16:37;;;;;;;0.67;0.67;;;16.30;99.90;;;;;;5010538;28;20042;-71
2023/07/24 02:19:02;;;;;;;0.60;0.60;;;16.20;99.90;;;;;;5010709;28;20083;-71
2023/07/24 02:21:28;;;;;;;0.75;0.75;;;16.30;99.90;;;;;;5008224;28;20044;-71
2023/07/24 02:23:54;;;;;;;0.57;0.57;;;16.30;99.90;;;;;;5010837;28;20052;-71
2023/07/24 02:26:20;;;;;;;1.17;0.65;;;16.10;99.90;;;;;;4993978;28;20497;-71
2023/07/24 02:28:46;;;;;;;0.40;0.40;;;16.00;99.90;;;;;;5010718;28;20132;-71
2023/07/24 02:31:12;;;;;;;0.82;0.82;;;16.30;99.90;;;;;;5025789;28;20048;-70
2023/07/24 02:33:37;;;;;;;1.00;0.88;;;16.20;99.90;;;;;;5009975;28;20457;-71
2023/07/24 02:36:03;;;;;;;0.90;0.90;;;16.30;99.90;;;;;;5009162;28;20576;-71
2023/07/24 02:38:29;;;;;;;0.32;0.32;;;16.20;99.90;;;;;;5010573;28;20053;-71
2023/07/24 02:40:55;;;;;;;0.90;0.90;;;16.10;99.90;;;;;;5007337;28;20046;-72
2023/07/24 02:43:20;;;;;;;0.65;0.63;;;16.30;99.90;;;;;;5007115;28;20057;-74
2023/07/24 02:45:47;;;;;;;0.52;0.52;;;;;;;;;;5006811;28;20042;-71
2023/07/24 02:48:12;;;;;;;0.70;0.70;;;16.30;99.90;;;;;;5005466;28;20038;-71
2023/07/24 02:50:38;;;;;;;0.65;0.65;;;16.00;99.90;;;;;;5006695;28;20508;-71
2023/07/24 02:53:04;;;;;;;0.50;0.50;;;16.30;99.90;;;;;;5007084;28;20139;-71
2023/07/24 02:55:30;;;;;;;0.75;0.60;;;16.20;99.90;;;;;;5002839;28;20132;-71
2023/07/24 02:57:56;;;;;;;0.50;0.50;;;16.10;99.90;;;;;;5002618;28;20650;-73
2023/07/24 03:00:22;;;;;;;1.10;0.70;;;15.90;99.90;;;;;;5007045;28;20121;-71
2023/07/24 03:02:47;;;;;;;0.47;0.47;;;16.10;99.90;;;;;;4991101;28;20407;-70
2023/07/24 03:05:13;;;;;;;0.80;0.80;;;16.40;99.90;;;;;;5006246;28;20038;-71
2023/07/24 03:07:39;;;;;;;1.58;1.23;;;16.20;99.90;;;;;;5005158;28;20409;-72
2023/07/24 03:10:05;;;;;;;1.02;1.02;;;16.00;99.90;;;;;;5003962;28;20525;-71
2023/07/24 03:12:31;;;;;;;0.40;0.40;;;16.00;99.90;;;;;;5005257;28;20133;-71
2023/07/24 03:14:56;;;;;;;0.57;0.57;;;16.00;99.90;;;;;;4988904;28;20137;-72
2023/07/24 03:17:23;;;;;;;0.65;0.65;;;15.90;99.90;;;;;;5004484;28;20141;-71
2023/07/24 03:19:49;;;;;;;0.80;0.80;;;16.30;99.90;;;;;;4984820;28;20034;-71
2023/07/24 03:22:15;;;;;;;1.27;1.15;;;16.00;99.90;;;;;;4989541;28;20049;-71
2023/07/24 03:24:41;;;;;;;0.77;0.77;;;16.20;99.90;;;;;;5008746;28;20498;-71
2023/07/24 03:27:07;;;;;;;1.17;1.10;;;16.00;99.90;;;;;;5006318;28;20046;-72
2023/07/24 03:29:32;;;;;;;0.93;0.93;;;16.00;99.90;;;;;;5004843;28;20404;-71
2023/07/24 03:31:58;;;;;;;0.80;0.80;;;15.90;99.90;;;;;;5006143;28;20509;-71
2023/07/24 03:34:24;;;;;;;0.88;0.88;;;16.30;99.90;;;;;;5006538;28;20099;-71
2023/07/24 03:36:50;;;;;;;1.17;0.98;;;16.20;99.90;;;;;;5026594;28;20038;-71
2023/07/24 03:39:15;;;;;;;0.57;0.57;;;16.30;99.90;;;;;;4987813;28;20468;-71
2023/07/24 03:41:42;;;;;;;0.93;0.93;;;16.10;99.90;;;;;;4990500;28;20046;-71
2023/07/24 03:44:08;;;;;;;0.85;0.85;;;16.30;99.90;;;;;;5006259;28;20038;-73
2023/07/24 03:46:34;;;;;;;0.57;0.57;;;15.90;99.90;;;;;;5003713;28;20050;-71
2023/07/24 03:49:00;;;;;;;1.23;1.23;;;16.40;99.90;;;;;;4992777;28;20038;-71
2023/07/24 03:51:26;;;;;;;1.33;1.23;;;16.20;99.90;;;;;;5010174;28;20105;-71
2023/07/24 03:53:54;;;;;;;0.60;0.60;;;15.90;99.90;;;;;;4991823;28;20096;-71
2023/07/24 03:56:20;;;;;;;0.60;0.60;;;15.90;99.90;;;;;;4993010;28;20128;-71
2023/07/24 03:58:46;;;;;;;1.38;1.38;;;16.40;99.90;;;;;;5006179;28;20042;-71
2023/07/24 04:01:11;;;;;;;0.93;0.93;;;16.30;99.90;;;;;;5009712;28;20034;-71
2023/07/24 04:03:37;;;;;;;1.52;1.23;;;16.00;99.90;;;;;;4984348;28;20507;-71
2023/07/24 04:06:03;;;;;;;0.50;0.50;;;16.20;99.90;;;;;;4990651;28;20485;-72
2023/07/24 04:08:29;;;;;;;0.70;0.70;;;16.10;99.90;;;;;;4995451;28;20050;-71
2023/07/24 04:10:56;;;;;;;0.47;0.47;;;16.00;99.90;;;;;;5010153;28;20046;-71
2023/07/24 04:13:22;;;;;;;0.57;0.57;;;15.90;99.90;;;;;;5008026;28;20096;-71
2023/07/24 04:15:47;;;;;;;0.60;0.60;;;15.90;99.90;;;;;;5010287;28;20506;-71
2023/07/24 04:18:13;;;;;;;0.50;0.50;;;16.00;99.90;;;;;;5009295;28;20049;-73
2023/07/24 04:20:39;;;;;;;0.47;0.47;;;16.20;99.90;;;;;;5006526;28;20041;-71
2023/07/24 04:23:05;;;;;;;0.70;0.70;;;;;;;;;;5007159;28;20046;-73
2023/07/24 04:25:31;;;;;;;0.68;0.68;;;;;;;;;;5009570;28;20050;-71
2023/07/24 04:27:56;;;;;;;0.50;0.50;;;16.20;99.90;;;;;;5009405;28;20124;-72
2023/07/24 04:30:22;;;;;;;0.77;0.77;;;16.20;99.90;;;;;;4999572;28;20185;-71
2023/07/24 04:32:49;;;;;;;0.77;0.77;;;;;;;;;;5009814;28;20041;-71
2023/07/24 04:35:15;;;;;;;0.60;0.60;;;16.20;99.90;;;;;;5006520;28;20042;-71
2023/07/24 04:37:40;;;;;;;0.88;0.88;;;16.20;99.90;;;;;;5008583;28;20033;-71
2023/07/24 04:40:07;;;;;;;0.50;0.50;;;16.50;99.90;;;;;;5010038;28;20172;-72
2023/07/24 04:42:32;;;;;;;0.60;0.60;;;16.20;99.90;;;;;;5012545;28;20126;-71
2023/07/24 04:44:58;;;;;;;0.40;0.40;;;;;;;;;;5012692;28;20830;-71
2023/07/24 04:47:24;;;;;;;0.60;0.60;;;16.20;99.90;;;;;;5011487;28;20041;-71
2023/07/24 04:49:50;;;;;;;1.02;0.80;;;16.30;99.90;;;;;;5009435;28;20508;-72
2023/07/24 04:52:16;;;;;;;0.55;0.55;;;16.30;99.90;;;;;;5012401;28;20512;-71
2023/07/24 04:54:41;;;;;;;1.55;0.80;;;16.30;99.90;;;;;;5015220;28;20037;-71
2023/07/24 04:57:07;;;;;;;1.77;0.77;;;16.10;99.90;;;;;;5005363;28;20520;-72
2023/07/24 04:59:33;;;;;;;0.70;0.70;;;16.20;99.90;;;;;;4995876;28;20044;-71
2023/07/24 05:01:59;;;;;;;1.10;0.85;;;16.10;99.90;;;;;;4996909;28;20148;-71
2023/07/24 05:04:24;;;;;;;0.50;0.50;;;16.00;99.90;;;;;;5011829;28;20485;-71
2023/07/24 05:06:50;;;;;;;0.50;0.50;;;16.10;99.90;;;;;;5012598;28;20421;-71
2023/07/24 05:09:16;;;;;;;0.93;0.93;;;16.30;99.90;;;;;;5010341;28;20126;-71
2023/07/24 05:11:44;;;;;;;0.40;0.40;;;16.50;99.90;;;;;;5011475;28;20489;-72
2023/07/24 05:14:10;;;;;;;0.65;0.60;;;16.10;99.90;;;;;;5017354;28;20056;-71
2023/07/24 05:16:36;;;;;;;0.40;0.40;;;16.50;99.90;;;;;;5010910;28;20132;-71
2023/07/24 05:19:02;;;;;;;0.55;0.55;;;;;;;;;;5004351;28;20592;-71
2023/07/24 05:21:28;;;;;;;0.45;0.45;;;16.60;99.90;;;;;;5008233;28;20037;-72
2023/07/24 05:23:53;;;;;;;0.60;0.60;;;16.30;99.90;;;;;;5008263;28;20536;-72
2023/07/24 05:26:19;;;;;;;0.55;0.55;;;16.50;99.90;;;;;;5011387;28;20051;-71
2023/07/24 05:28:46;;;;;;;0.70;0.70;;;16.20;99.90;;;;;;4992209;28;20084;-71
2023/07/24 05:31:11;;;;;;;0.60;0.60;;;16.40;99.90;;;;;;5012001;28;20046;-72
2023/07/24 05:33:37;;;;;;;0.98;0.80;;;16.30;99.90;;;;;;5010538;28;20473;-72
2023/07/24 05:36:04;;;;;;;0.50;0.50;;;16.30;99.90;;;;;;4991293;28;20038;-72
2023/07/24 05:38:30;;;;;;;0.57;0.57;;;16.40;99.90;;;;;;5008608;28;20050;-72
2023/07/24 05:41:00;;;;;;;1.35;0.95;;;16.40;99.90;;;;;;5014027;28;20061;-72
2023/07/24 05:43:26;;;;;;;0.60;0.60;;;16.50;99.90;;;;;;5014562;28;20049;-72
2023/07/24 05:45:53;;;;;;;0.50;0.50;;;16.20;99.90;;;;;;5010260;28;20392;-72
2023/07/24 05:48:19;;;;;;;0.77;0.77;;;16.70;99.90;;;;;;4994554;28;20124;-71
2023/07/24 05:50:45;;;;;;;0.70;0.70;;;16.30;99.90;;;;;;5013774;28;20417;-71
2023/07/24 05:53:11;;;;;;;5.10;1.08;;;16.70;99.90;;;;;;5010320;28;20041;-72
2023/07/24 05:55:36;;;;;;;1.20;1.20;;;16.60;99.90;;;;;;5010742;28;20044;-72
2023/07/24 05:58:02;;;;;;;0.80;0.80;;;16.60;99.90;;;;;;5010964;28;20045;-72
2023/07/24 06:00:28;;;;;;;0.52;0.52;;;16.60;99.90;;;;;;4994446;28;20136;-72
2023/07/24 06:02:54;;;;;;;0.68;0.63;;;16.40;99.90;;;;;;5015022;28;20037;-72
2023/07/24 06:05:20;;;;;;;0.50;0.50;;;16.80;99.90;;;;;;5007808;28;20033;-72
2023/07/24 06:07:46;;;;;;;3.10;1.00;;;16.50;99.90;;;;;;5011344;28;20037;-71
2023/07/24 06:10:12;;;;;;;0.70;0.70;;;17.00;99.90;;;;;;5007399;28;20041;-71
2023/07/24 06:12:38;;;;;;;0.88;0.85;;;17.10;99.90;;;;;;5008907;28;20049;-72
2023/07/24 06:15:05;;;;;;;1.33;1.30;;;16.60;99.90;;;;;;5008926;28;20112;-72
2023/07/24 06:17:31;;;;;;;1.00;0.60;;;16.90;99.90;;;;;;4987571;28;20482;-72
2023/07/24 06:19:56;;;;;;;0.80;0.80;;;16.80;99.90;;;;;;5009882;28;20106;-72
2023/07/24 06:22:23;;;;;;;0.68;0.68;;;17.00;99.90;;;;;;5005935;28;20493;-72
2023/07/24 06:24:48;;;;;;;0.60;0.60;;;17.00;99.90;;;;;;5010058;28;20508;-71
2023/07/24 06:27:15;;;;;;;0.60;0.60;;;16.70;99.90;;;;;;5013182;28;20037;-71
2023/07/24 06:29:40;;;;;;;0.40;0.40;;;16.80;99.90;;;;;;5007257;28;20045;-71
2023/07/24 06:32:07;;;;;;;1.30;1.15;;;17.10;99.90;;;;;;4992496;28;20049;-72
2023/07/24 06:34:33;;;;;;;1.02;1.02;;;16.80;99.90;;;;;;5008806;28;20041;-71
2023/07/24 06:36:59;;;;;;;0.70;0.70;;;16.80;99.90;;;;;;5012666;28;20049;-72
2023/07/24 06:39:25;;;;;;;0.40;0.40;;;16.80;99.90;;;;;;5009894;28;20045;-72
2023/07/24 06:41:54;;;;;;;0.85;0.85;;;17.20;99.90;;;;;;5008318;28;20128;-72
2023/07/24 06:44:21;;;;;;;0.80;0.80;;;17.10;99.90;;;;;;5009643;28;20045;-72
2023/07/24 06:46:46;;;;;;;1.77;1.35;;;17.60;99.90;;;;;;4993323;28;20489;-72
2023/07/24 06:49:12;;;;;;;0.93;0.80;;;17.50;99.90;;;;;;5009143;28;20056;-72
2023/07/24 06:51:38;;;;;;;0.75;0.60;;;17.50;99.90;;;;;;5009950;28;20041;-72
2023/07/24 06:54:05;;;;;;;0.50;0.50;;;17.70;99.90;;;;;;5008986;28;20110;-72
2023/07/24 06:56:31;;;;;;;1.30;1.20;;;18.10;99.90;;;;;;5009812;28;20045;-72
2023/07/24 06:58:58;;;;;;;0.65;0.63;;;17.80;99.90;;;;;;5004668;28;20033;-72
2023/07/24 07:01:24;;;;;;;1.75;1.58;;;17.90;99.90;;;;;;5008922;28;20073;-72
2023/07/24 07:03:50;;;;;;;1.10;1.10;;;18.30;99.90;;;;;;5009770;28;20071;-72
2023/07/24 07:06:16;;;;;;;0.65;0.65;;;18.50;99.90;;;;;;5007374;28;20036;-72
2023/07/24 07:08:42;;;;;;;0.90;0.80;;;18.20;99.90;;;;;;4985335;28;20030;-73
2023/07/24 07:11:08;;;;;;;1.13;1.13;;;18.30;99.90;;;;;;5009092;28;20040;-72
2023/07/24 07:13:33;;;;;;;0.70;0.70;;;18.30;99.90;;;;;;5024080;28;20076;-72
2023/07/24 07:15:59;;;;;;;1.15;1.05;;;18.20;99.90;;;;;;5002360;28;20044;-72
2023/07/24 07:18:25;;;;;;;0.85;0.85;;;18.70;99.90;;;;;;5008729;28;20049;-72
2023/07/24 07:20:52;;;;;;;5.18;1.15;;;18.40;99.90;;;;;;5008281;28;20084;-72
2023/07/24 07:23:19;;;;;;;0.80;0.80;;;18.50;99.90;;;;;;5009510;28;20045;-72
2023/07/24 07:25:45;;;;;;;0.45;0.45;;;18.70;99.90;;;;;;5011042;28;20132;-72
2023/07/24 07:28:12;;;;;;;0.68;0.68;;;18.80;99.90;;;;;;4994178;28;20747;-72
2023/07/24 07:30:38;;;;;;;0.70;0.70;;;;;;;;;;5011570;28;20116;-72
2023/07/24 07:33:05;;;;;;;1.98;1.85;;;18.80;99.90;;;;;;5013675;28;20133;-72
2023/07/24 07:35:32;;;;;;;0.77;0.77;;;19.10;99.90;;;;;;4995422;28;20564;-72
2023/07/24 07:37:58;;;;;;;0.50;0.50;;;19.30;99.90;;;;;;4997654;28;20076;-72
2023/07/24 07:40:24;;;;;;;0.77;0.75;;;18.90;99.90;;;;;;5013708;28;20033;-72
2023/07/24 07:42:50;;;;;;;0.80;0.80;;;19.00;99.90;;;;;;5013763;28;20527;-72
2023/07/24 07:45:15;;;;;;;0.85;0.85;;;19.50;99.90;;;;;;5012960;28;20051;-72
2023/07/24 07:47:41;;;;;;;0.95;0.95;;;19.30;99.90;;;;;;4988756;28;20037;-72
2023/07/24 07:50:07;;;;;;;1.30;1.20;;;19.40;99.90;;;;;;5012377;28;20081;-72
2023/07/24 07:52:32;;;;;;;1.10;1.02;;;19.40;99.90;;;;;;5012829;28;20069;-72
2023/07/24 07:54:58;;;;;;;3.13;1.48;;;19.50;99.90;;;;;;5010733;28;20049;-72
2023/07/24 07:57:24;;;;;;;2.25;2.05;;;19.20;99.90;;;;;;5012715;28;20045;-72
2023/07/24 07:59:49;;;;;;;1.17;1.17;;;19.70;99.90;;;;;;4990667;28;20075;-72
2023/07/24 08:02:15;;;;;;;1.40;1.30;;;19.70;99.90;;;;;;5012639;28;20045;-72
2023/07/24 08:04:41;;;;;;;1.05;1.05;;;19.80;99.90;;;;;;5012087;28;20037;-72
2023/07/24 08:07:07;;;;;;;0.73;0.73;;;19.60;99.90;;;;;;4997245;28;20117;-72
2023/07/24 08:09:33;;;;;;;0.75;0.75;;;19.60;99.90;;;;;;5008649;28;20183;-72
2023/07/24 08:11:59;;;;;;;0.88;0.88;;;19.80;99.90;;;;;;5005518;28;20318;-72
2023/07/24 08:14:25;;;;;;;1.23;1.13;;;19.80;99.90;;;;;;4995328;28;20048;-73
2023/07/24 08:16:51;;;;;;;0.80;0.80;;;19.70;99.90;;;;;;4991612;28;20504;-73
2023/07/24 08:19:16;;;;;;;1.10;1.05;;;19.90;99.90;;;;;;5005541;28;20037;-72
2023/07/24 08:21:42;;;;;;;0.73;0.73;;;19.90;99.90;;;;;;5013657;28;20405;-73
2023/07/24 08:24:08;;;;;;;0.68;0.68;;;20.10;99.90;;;;;;4988085;28;20046;-73
2023/07/24 08:26:33;;;;;;;0.57;0.57;;;20.30;99.90;;;;;;4995843;28;20480;-72
2023/07/24 08:28:59;;;;;;;1.15;0.70;;;20.60;99.90;;;;;;4996065;28;20045;-73
2023/07/24 08:31:25;;;;;;;1.02;1.02;;;20.70;99.90;;;;;;5012768;28;20073;-74
2023/07/24 08:33:50;;;;;;;1.77;1.52;;;20.30;99.90;;;;;;4996255;28;20034;-73
2023/07/24 08:36:16;;;;;;;0.60;0.60;;;20.30;99.90;;;;;;4988769;28;20105;-73
2023/07/24 08:38:42;;;;;;;0.65;0.65;;;20.60;99.90;;;;;;5005599;28;20038;-73
2023/07/24 08:41:13;;;;;;;0.70;0.70;;;20.60;99.90;;;;;;5012716;28;20047;-73
2023/07/24 08:43:41;;;;;;;1.90;1.75;;;20.40;99.90;;;;;;5010983;28;20064;-73
2023/07/24 08:46:08;;;;;;;1.38;1.30;;;20.40;99.90;;;;;;5012847;28;20508;-73
2023/07/24 08:48:36;;;;;;;2.78;2.58;;;20.90;99.90;;;;;;5013413;28;20404;-73
2023/07/24 08:51:04;;;;;;;0.55;0.55;;;20.90;99.90;;;;;;5012837;28;20041;-73
2023/07/24 08:53:30;;;;;;;1.30;0.63;;;21.00;99.90;;;;;;5012125;28;20053;-73
2023/07/24 08:55:57;;;;;;;1.95;1.85;;;21.10;99.90;;;;;;5012093;28;20046;-74
2023/07/24 08:58:23;;;;;;;0.65;0.65;;;21.20;99.90;;;;;;5010238;28;20046;-73
2023/07/24 09:00:48;;;;;;;1.17;1.17;;;21.20;99.90;;;;;;5012403;28;20043;-73
2023/07/24 09:03:14;;;;;;;0.70;0.70;;;21.20;99.90;;;;;;5010867;28;20035;-73
2023/07/24 09:05:40;;;;;;;1.25;1.15;;;21.30;99.90;;;;;;5012913;28;20570;-73
2023/07/24 09:08:05;;;;;;;1.33;1.33;;;21.10;99.90;;;;;;5010647;28;20091;-74
2023/07/24 09:10:31;;;;;;;0.55;0.55;;;21.10;99.90;;;;;;5012619;28;20107;-73
2023/07/24 09:12:57;;;;;;;2.20;1.98;;;21.20;99.90;;;;;;5010049;28;20515;-73
2023/07/24 09:15:23;;;;;;;1.20;1.20;;;21.40;99.90;;;;;;4995974;28;20037;-73
2023/07/24 09:17:50;;;;;;;0.68;0.68;;;21.80;99.90;;;;;;5012228;28;20120;-73
2023/07/24 09:20:16;;;;;;;1.40;1.30;;;21.80;99.90;;;;;;5010793;28;20045;-74
2023/07/24 09:22:53;;;;;;;0.90;0.90;;;21.70;99.90;;;;;;5012384;28;20041;-73
2023/07/24 09:25:29;;;;;;;1.38;1.27;;;22.30;99.90;;;;;;4987726;28;20045;-73
2023/07/24 09:27:54;;;;;;;1.23;1.15;;;22.10;99.90;;;;;;5012294;28;20103;-74
2023/07/24 09:30:23;;;;;;;0.98;0.93;;;22.30;99.90;;;;;;5012206;28;20489;-71
2023/07/24 09:32:58;;;;;;;1.70;1.60;;;23.00;99.90;;;;;;5012396;28;20041;-73
2023/07/24 09:35:28;;;;;;;2.60;1.52;;;22.70;99.90;;;;;;4994984;28;20041;-73
2023/07/24 09:38:09;;;;;;;1.42;1.25;;;23.10;99.90;;;;;;5011929;28;20432;-73
2023/07/24 09:40:43;;;;;;;0.50;0.50;;;22.60;99.90;;;;;;5012121;28;20037;-72
2023/07/24 09:43:19;;;;;;;2.17;1.08;;;22.70;99.90;;;;;;5008859;28;20120;-73
2023/07/24 09:45:45;;;;;;;1.15;1.15;;;22.50;99.90;;;;;;4990918;28;20077;-72
2023/07/24 09:48:14;;;;;;;1.65;1.55;;;22.80;99.90;;;;;;5012907;28;20383;-73
2023/07/24 09:50:42;;;;;;;1.35;1.25;;;23.00;99.90;;;;;;5012190;28;20048;-73
2023/07/24 09:53:24;;;;;;;1.63;1.50;;;22.80;99.90;;;;;;4990950;28;20094;-73
2023/07/24 09:55:56;;;;;;;0.50;0.50;;;23.00;99.90;;;;;;5003494;28;20033;-74
2023/07/24 09:58:24;;;;;;;1.15;1.05;;;23.00;99.90;;;;;;5011234;28;20044;-75
2023/07/24 10:00:50;;;;;;;0.40;0.40;;;23.50;99.90;;;;;;5011072;28;20370;-74
2023/07/24 10:03:17;;;;;;;0.98;0.98;;;23.40;99.90;;;;;;5010568;28;20044;-73
2023/07/24 10:05:44;;;;;;;1.35;1.35;;;23.70;99.90;;;;;;5006085;28;20073;-74
2023/07/24 10:08:11;;;;;;;1.33;1.33;;;23.60;99.90;;;;;;4998468;28;20049;-74
2023/07/24 10:10:39;;;;;;;0.80;0.80;;;23.70;99.90;;;;;;5009396;28;20041;-73
2023/07/24 10:13:05;;;;;;;1.10;1.10;;;23.90;99.90;;;;;;5011342;28;20042;-74
2023/07/24 10:15:31;;;;;;;0.80;0.80;;;23.80;99.90;;;;;;5010351;28;20081;-73
2023/07/24 10:18:06;;;;;;;0.98;0.98;;;24.30;99.90;;;;;;5009835;28;20140;-73
2023/07/24 10:20:39;;;;;;;1.20;1.15;;;24.40;99.90;;;;;;5011160;28;20046;-73
2023/07/24 10:23:07;;;;;;;0.98;0.90;;;24.50;99.90;;;;;;4995105;28;20128;-75
2023/07/24 10:25:34;;;;;;;;;;;24.20;99.90;;;;;;5006475;28;20064;-73
2023/07/24 10:28:10;;;;;;;2.05;1.30;;;24.20;99.90;;;;;;5011521;28;19978;-73
2023/07/24 10:30:37;;;;;;;0.88;0.88;;;24.50;99.90;;;;;;4994989;28;20132;-73
2023/07/24 10:33:13;;;;;;;1.50;1.38;;;24.60;99.90;;;;;;4993515;28;20399;-73
2023/07/24 10:35:47;;;;;;;0.82;0.82;;;24.30;99.90;;;;;;5008231;28;20041;-73
2023/07/24 10:38:14;;;;;;;0.93;0.93;;;24.70;99.90;;;;;;5004123;28;20409;-75
2023/07/24 10:40:42;;;;;;;0.60;0.60;;;24.70;99.90;;;;;;5011281;28;20033;-74
2023/07/24 10:43:10;;;;;;;1.58;1.48;;;25.30;99.90;;;;;;5002253;28;20115;-74
2023/07/24 10:45:50;;;;;;;1.17;1.15;;;25.50;99.90;;;;;;5007417;28;20424;-74
2023/07/24 10:48:17;;;;;;;1.40;1.30;;;25.20;99.90;;;;;;5002814;28;20412;-75
2023/07/24 10:50:45;;;;;;;0.77;0.77;;;25.60;99.90;;;;;;4989794;28;20042;-74
2023/07/24 10:53:13;;;;;;;1.27;1.17;;;25.40;99.90;;;;;;5007827;28;20387;-75
2023/07/24 10:55:39;;;;;;;1.63;1.38;;;25.50;99.90;;;;;;4988975;28;20048;-74
2023/07/24 10:58:06;;;;;;;2.13;2.03;;;25.80;99.90;;;;;;5007577;28;20045;-74
2023/07/24 11:00:31;;;;;;;0.52;0.52;;;26.00;99.90;;;;;;5007217;28;20474;-74
2023/07/24 11:02:57;;;;;;;1.55;0.95;;;25.70;99.90;;;;;;5007589;28;20034;-75
2023/07/24 11:05:24;;;;;;;1.10;0.93;;;26.20;99.90;;;;;;5006002;28;20081;-74
2023/07/24 11:07:50;;;;;;;0.95;0.95;;;26.00;99.90;;;;;;4984603;28;20100;-74
2023/07/24 11:10:17;;;;;;;1.85;1.75;;;26.20;99.90;;;;;;5004893;28;20128;-75
2023/07/24 11:12:43;;;;;;;15.48;1.98;;;26.00;99.90;;;;;;5007314;28;20488;-77
2023/07/24 11:15:09;;;;;;;0.60;0.60;;;25.60;99.90;;;;;;4990744;28;20123;-75
2023/07/24 11:17:37;;;;;;;0.70;0.70;;;25.80;99.90;;;;;;4983132;28;20077;-75
2023/07/24 11:20:20;;;;;;;1.08;1.05;;;25.60;99.90;;;;;;4989508;28;20045;-75
2023/07/24 11:22:46;;;;;;;1.00;1.00;;;25.60;99.90;;;;;;5005120;28;20046;-75
2023/07/24 11:25:12;;;;;;;0.80;0.77;;;25.70;99.90;;;;;;5006104;28;20042;-74
2023/07/24 11:27:43;;;;;;;0.63;0.63;;;25.70;99.90;;;;;;4991505;28;20052;-75
2023/07/24 11:30:11;;;;;;;0.65;0.65;;;25.70;99.90;;;;;;5007816;28;20034;-77
2023/07/24 11:32:39;;;;;;;3.35;1.13;;;25.50;99.90;;;;;;5006492;28;20116;-74
2023/07/24 11:35:05;;;;;;;1.30;1.10;;;25.50;99.90;;;;;;5012643;28;20042;-76
2023/07/24 11:37:31;;;;;;;0.88;0.85;;;25.40;99.90;;;;;;4996123;28;20042;-74
2023/07/24 11:40:09;;;;;;;1.00;0.98;;;25.30;99.90;;;;;;5006427;28;20041;-75
2023/07/24 11:42:53;;;;;;;0.90;0.90;;;25.80;99.90;;;;;;5004211;28;20086;-75
2023/07/24 11:45:19;;;;;;;1.63;1.52;;;25.80;99.90;;;;;;5007484;28;20049;-74
2023/07/24 11:47:46;;;;;;;1.58;0.93;;;25.50;99.90;;;;;;5007343;28;20506;-75
2023/07/24 11:50:13;;;;;;;1.48;1.38;;;25.50;99.90;;;;;;5006828;28;20104;-74
2023/07/24 11:52:43;;;;;;;0.93;0.90;;;25.30;99.90;;;;;;4990868;28;20091;-74
2023/07/24 11:55:11;;;;;;;0.90;0.90;;;25.20;99.90;;;;;;5006617;28;20681;-74
2023/07/24 11:57:36;;;;;;;1.98;1.88;;;25.00;99.90;;;;;;5000926;28;20049;-74
2023/07/24 12:00:05;;;;;;;1.30;1.25;;;24.80;99.90;;;;;;5005679;28;20042;-74
2023/07/24 12:02:33;;;;;;;0.70;0.70;;;24.80;99.90;;;;;;5005714;28;20053;-74
2023/07/24 12:04:59;;;;;;;1.45;1.35;;;24.60;99.90;;;;;;4978961;28;20038;-72
2023/07/24 12:07:35;;;;;;;0.68;0.68;;;24.50;99.90;;;;;;5006679;28;20125;-73
2023/07/24 12:10:07;;;;;;;0.98;0.98;;;24.80;99.90;;;;;;5010587;28;20099;-72
2023/07/24 12:12:46;;;;;;;0.90;0.90;;;24.60;99.90;;;;;;5004791;28;20041;-71
2023/07/24 12:15:13;;;;;;;1.70;1.60;;;24.70;99.90;;;;;;5009461;28;20042;-73
2023/07/24 12:17:40;;;;;;;1.02;1.02;;;25.20;99.90;;;;;;5009460;28;20100;-73
2023/07/24 12:20:10;;;;;;;0.83;0.83;;;24.80;99.90;;;;;;4992968;28;20046;-78
2023/07/24 12:22:37;;;;;;;0.93;0.93;;;25.00;99.90;;;;;;5007267;28;20335;-74
2023/07/24 12:25:04;;;;;;;0.80;0.80;;;24.90;99.90;;;;;;5008000;28;20048;-74
2023/07/24 12:27:30;;;;;;;1.15;1.15;;;25.30;99.90;;;;;;4999859;28;20204;-74
2023/07/24 12:29:56;;;;;;;0.70;0.70;;;25.10;99.90;;;;;;5007576;28;20128;-73
2023/07/24 12:32:22;;;;;;;1.15;1.15;;;25.30;99.90;;;;;;5009992;28;20121;-73
2023/07/24 12:34:49;;;;;;;1.80;0.88;;;25.80;99.90;;;;;;4988191;28;20132;-76
2023/07/24 12:37:17;;;;;;;1.45;1.42;;;25.60;99.90;;;;;;5009425;28;20124;-73
2023/07/24 12:39:46;;;;;;;1.50;1.45;;;25.90;99.90;;;;;;5009624;28;20485;-73
2023/07/24 12:42:13;;;;;;;1.45;1.35;;;25.50;99.90;;;;;;5000336;28;20129;-74
2023/07/24 12:44:38;;;;;;;1.45;1.35;;;25.60;99.90;;;;;;5009781;28;20056;-74
2023/07/24 12:47:05;;;;;;;1.85;1.50;;;25.40;99.90;;;;;;5009160;28;20042;-73
2023/07/24 12:49:31;;;;;;;0.47;0.47;;;25.30;99.90;;;;;;4982568;28;20042;-73